createdAt,value
2023-05-03T00:03:26.235Z,1.52
2023-05-03T00:08:49.025Z,1.48
2023-05-03T00:14:10.860Z,3.03
2023-05-03T00:19:33.896Z,1.38
2023-05-03T00:24:56.740Z,0.68
2023-05-03T00:30:19.611Z,1.02
2023-05-03T00:35:41.449Z,0.88
2023-05-03T00:41:03.772Z,1.42
2023-05-03T00:46:26.149Z,1.10
2023-05-03T00:51:48.639Z,1.52
2023-05-03T00:57:10.630Z,0.82
2023-05-03T01:02:32.918Z,1.83
2023-05-03T01:08:21.135Z,1.90
2023-05-03T01:13:55.290Z,1.65
2023-05-03T01:19:23.622Z,1.15
2023-05-03T01:24:56.013Z,0.88
2023-05-03T01:30:17.826Z,2.38
2023-05-03T01:35:52.915Z,1.85
2023-05-03T01:41:19.175Z,1.95
2023-05-03T01:46:45.724Z,2.15
2023-05-03T01:52:07.506Z,0.93
2023-05-03T01:57:29.316Z,2.88
2023-05-03T02:02:51.143Z,0.57
2023-05-03T02:08:12.909Z,1.42
2023-05-03T02:13:37.864Z,0.88
2023-05-03T02:18:59.927Z,0.40
2023-05-03T02:24:24.005Z,0.40
2023-05-03T02:29:45.913Z,1.90
2023-05-03T02:35:08.097Z,0.45
2023-05-03T02:40:29.876Z,1.77
2023-05-03T02:45:52.520Z,0.77
2023-05-03T02:51:14.294Z,0.55
2023-05-03T02:56:36.357Z,1.17
2023-05-03T03:01:58.326Z,7.88
2023-05-03T03:07:20.096Z,0.85
2023-05-03T03:12:41.985Z,0.60
2023-05-03T03:18:03.917Z,0.90
2023-05-03T03:23:25.732Z,0.70
2023-05-03T03:28:47.643Z,1.33
2023-05-03T03:34:09.625Z,1.02
2023-05-03T03:39:31.669Z,0.75
2023-05-03T03:44:53.608Z,1.52
2023-05-03T03:50:16.830Z,1.95
2023-05-03T03:55:39.034Z,1.33
2023-05-03T04:01:01.084Z,1.10
2023-05-03T04:06:23.171Z,1.25
2023-05-03T04:11:46.335Z,1.10
2023-05-03T04:17:08.332Z,3.45
2023-05-03T04:22:31.350Z,1.65
2023-05-03T04:27:53.478Z,2.10
2023-05-03T04:33:16.726Z,1.20
2023-05-03T04:38:38.893Z,1.08
2023-05-03T04:44:00.765Z,1.10
2023-05-03T04:49:22.550Z,1.20
2023-05-03T04:54:46.206Z,1.83
2023-05-03T05:00:12.249Z,1.45
2023-05-03T05:05:34.072Z,1.08
2023-05-03T05:10:56.284Z,0.95
2023-05-03T05:16:18.108Z,0.68
2023-05-03T05:21:40.785Z,0.82
2023-05-03T05:27:03.121Z,8.93
2023-05-03T05:32:24.918Z,2.17
2023-05-03T05:37:46.839Z,5.95
2023-05-03T05:43:08.659Z,4.53
2023-05-03T05:48:30.941Z,7.57
2023-05-03T05:53:53.223Z,3.50
2023-05-03T05:59:17.911Z,12.25
2023-05-03T06:04:39.727Z,7.27
2023-05-03T06:10:01.907Z,10.35
2023-05-03T06:15:23.973Z,6.55
2023-05-03T06:20:50.398Z,5.97
2023-05-03T06:26:12.308Z,10.05
2023-05-03T06:31:34.172Z,2.92
2023-05-03T06:36:55.999Z,4.70
2023-05-03T06:42:17.936Z,6.30
2023-05-03T06:47:43.024Z,4.65
2023-05-03T06:53:05.129Z,9.65
2023-05-03T06:58:26.912Z,4.28
2023-05-03T07:03:48.839Z,6.20
2023-05-03T07:09:10.988Z,7.25
2023-05-03T07:14:32.761Z,3.83
2023-05-03T07:19:54.724Z,3.05
2023-05-03T07:25:18.056Z,3.05
2023-05-03T07:30:40.012Z,3.05
2023-05-03T07:36:01.819Z,5.55
2023-05-03T07:41:24.621Z,5.35
2023-05-03T07:46:46.443Z,3.17
2023-05-03T07:52:08.308Z,3.03
2023-05-03T07:57:30.314Z,4.55
2023-05-03T08:02:52.368Z,2.88
2023-05-03T08:08:15.551Z,3.30
2023-05-03T08:13:37.453Z,3.47
2023-05-03T08:18:59.330Z,1.80
2023-05-03T08:24:21.162Z,1.75
2023-05-03T08:29:43.205Z,5.07
2023-05-03T08:35:07.659Z,2.40
2023-05-03T08:40:29.648Z,5.45
2023-05-03T08:45:51.724Z,4.43
2023-05-03T08:51:14.362Z,2.22
2023-05-03T08:56:43.576Z,2.85
2023-05-03T09:02:07.998Z,2.75
2023-05-03T09:07:29.847Z,2.63
2023-05-03T09:12:59.225Z,2.83
2023-05-03T09:18:21.709Z,2.33
2023-05-03T09:23:43.921Z,2.05
2023-05-03T09:29:05.818Z,1.50
2023-05-03T09:34:27.615Z,3.47
2023-05-03T09:40:05.052Z,3.83
2023-05-03T09:45:27.666Z,4.72
2023-05-03T09:50:49.745Z,3.30
2023-05-03T09:56:15.194Z,2.45
2023-05-03T10:07:02.285Z,2.03
2023-05-03T10:12:24.703Z,3.75
2023-05-03T10:17:52.052Z,4.43
2023-05-03T10:23:14.450Z,5.05
2023-05-03T10:28:39.582Z,1.65
2023-05-03T10:34:01.492Z,2.85
2023-05-03T10:39:23.627Z,4.03
2023-05-03T10:44:53.566Z,8.90
2023-05-03T10:50:15.297Z,4.90
2023-05-03T10:55:37.283Z,4.65
2023-05-03T11:01:00.471Z,3.92
2023-05-03T11:06:39.344Z,6.00
2023-05-03T11:12:07.656Z,4.53
2023-05-03T11:17:29.592Z,5.60
2023-05-03T11:22:52.432Z,6.10
2023-05-03T11:28:14.178Z,5.03
2023-05-03T11:33:38.425Z,7.30
2023-05-03T11:39:00.653Z,4.55
2023-05-03T11:44:22.542Z,5.65
2023-05-03T11:49:58.124Z,6.85
2023-05-03T11:55:20.038Z,4.13
2023-05-03T12:00:52.509Z,4.03
2023-05-03T12:06:14.891Z,3.25
2023-05-03T12:11:45.121Z,4.32
2023-05-03T12:17:07.926Z,5.60
2023-05-03T12:22:30.586Z,5.78
2023-05-03T12:28:14.616Z,3.55
2023-05-03T12:33:38.577Z,4.90
2023-05-03T12:39:02.093Z,8.68
2023-05-03T12:44:24.380Z,3.13
2023-05-03T12:49:46.731Z,3.97
2023-05-03T12:55:11.090Z,3.15
2023-05-03T13:00:35.916Z,6.87
2023-05-03T13:05:58.958Z,3.63
2023-05-03T13:11:21.057Z,2.80
2023-05-03T13:16:45.876Z,3.35
2023-05-03T13:22:07.823Z,4.43
2023-05-03T13:27:30.197Z,3.33
2023-05-03T13:32:52.255Z,5.45
2023-05-03T13:38:14.652Z,4.45
2023-05-03T13:43:36.631Z,3.83
2023-05-03T13:48:58.450Z,6.10
2023-05-03T13:54:21.622Z,6.57
2023-05-03T13:59:43.448Z,7.47
2023-05-03T14:05:05.897Z,6.65
2023-05-03T14:10:27.740Z,5.35
2023-05-03T14:15:49.772Z,9.55
2023-05-03T14:21:12.351Z,7.18
2023-05-03T14:26:34.499Z,9.10
2023-05-03T14:31:59.690Z,5.07
2023-05-03T14:37:21.754Z,7.93
2023-05-03T14:42:43.590Z,8.93
2023-05-03T14:48:05.923Z,5.97
2023-05-03T14:53:27.897Z,8.75
2023-05-03T14:58:50.640Z,6.72
2023-05-03T15:04:12.833Z,6.28
2023-05-03T15:09:34.594Z,12.80
2023-05-03T15:14:56.389Z,8.35
2023-05-03T15:20:18.253Z,7.93
2023-05-03T15:25:40.225Z,5.15
2023-05-03T15:31:02.133Z,3.83
2023-05-03T15:36:24.071Z,3.60
2023-05-03T15:41:45.927Z,5.28
2023-05-03T15:47:07.696Z,4.95
2023-05-03T15:52:29.488Z,7.45
2023-05-03T15:57:53.427Z,5.40
2023-05-03T16:03:15.324Z,3.97
2023-05-03T16:08:37.924Z,8.85
2023-05-03T16:13:59.727Z,10.57
2023-05-03T16:19:22.588Z,11.57
2023-05-03T16:24:44.482Z,10.73
2023-05-03T16:30:07.728Z,8.57
2023-05-03T16:35:29.742Z,13.57
2023-05-03T16:40:51.700Z,10.30
2023-05-03T16:46:13.535Z,7.80
2023-05-03T16:51:35.428Z,6.20
2023-05-03T16:56:57.871Z,6.90
2023-05-03T17:02:21.387Z,9.95
2023-05-03T17:07:43.372Z,10.90
2023-05-03T17:13:06.547Z,10.85
2023-05-03T17:18:28.731Z,12.93
2023-05-03T17:23:51.289Z,11.40
2023-05-03T17:29:13.514Z,11.95
2023-05-03T17:34:36.569Z,9.57
2023-05-03T17:39:58.386Z,11.63
2023-05-03T17:45:20.387Z,7.90
2023-05-03T17:50:43.430Z,7.60
2023-05-03T17:56:05.628Z,6.43
2023-05-03T18:01:27.897Z,6.55
2023-05-03T18:06:49.716Z,7.55
2023-05-03T18:12:11.462Z,2.88
2023-05-03T18:17:33.266Z,4.30
2023-05-03T18:22:55.076Z,6.47
2023-05-03T18:28:18.314Z,8.75
2023-05-03T18:33:40.397Z,8.10
2023-05-03T18:39:02.280Z,13.32
2023-05-03T18:44:25.934Z,12.15
2023-05-03T18:49:53.385Z,13.45
2023-05-03T18:55:15.252Z,7.78
2023-05-03T19:00:37.052Z,6.70
2023-05-03T19:06:04.297Z,4.45
2023-05-03T19:11:27.067Z,8.48
2023-05-03T19:16:49.010Z,11.30
2023-05-03T19:22:10.941Z,8.75
2023-05-03T19:27:33.008Z,5.65
2023-05-03T19:32:54.997Z,5.07
2023-05-03T19:38:16.837Z,4.05
2023-05-03T19:43:39.733Z,5.03
2023-05-03T19:49:01.949Z,5.20
2023-05-03T19:54:23.764Z,7.82
2023-05-03T19:59:48.197Z,6.65
2023-05-03T20:05:10.194Z,7.07
2023-05-03T20:10:36.494Z,7.35
2023-05-03T20:15:58.423Z,10.45
2023-05-03T20:21:20.223Z,5.13
2023-05-03T20:26:42.178Z,6.78
2023-05-03T20:32:04.096Z,6.03
2023-05-03T20:37:26.028Z,3.72
2023-05-03T20:42:47.814Z,8.00
2023-05-03T20:48:09.635Z,5.63
2023-05-03T20:53:31.519Z,3.22
2023-05-03T20:58:53.647Z,4.60
2023-05-03T21:04:15.417Z,4.07
2023-05-03T21:09:37.165Z,3.17
2023-05-03T21:14:58.893Z,3.67
2023-05-03T21:20:20.724Z,2.42
2023-05-03T21:25:42.517Z,3.17
2023-05-03T21:31:04.426Z,3.75
2023-05-03T21:36:26.246Z,1.90
2023-05-03T21:41:48.369Z,1.80
2023-05-03T21:47:10.248Z,2.13
2023-05-03T21:52:33.309Z,3.53
2023-05-03T21:57:55.056Z,5.00
2023-05-03T22:03:17.080Z,2.25
2023-05-03T22:08:39.175Z,2.50
2023-05-03T22:14:08.446Z,1.95
2023-05-03T22:19:31.324Z,6.20
2023-05-03T22:24:53.155Z,1.75
2023-05-03T22:30:15.030Z,2.85
2023-05-03T22:35:36.884Z,3.25
2023-05-03T22:40:58.841Z,3.03
2023-05-03T22:46:20.821Z,2.28
2023-05-03T22:51:42.770Z,2.53
2023-05-03T22:57:04.792Z,2.90
2023-05-03T23:02:26.879Z,2.55
2023-05-03T23:07:48.963Z,1.67
2023-05-03T23:13:10.985Z,1.23
2023-05-03T23:18:33.005Z,1.95
2023-05-03T23:23:54.768Z,1.63
2023-05-03T23:29:16.920Z,2.15
2023-05-03T23:34:39.172Z,1.95
2023-05-03T23:40:01.033Z,2.78
2023-05-03T23:45:22.882Z,2.22
2023-05-03T23:50:44.621Z,1.55
2023-05-03T23:56:06.814Z,1.77
